createdAt,value
2022-08-14T00:00:00.205Z,24.3
2022-08-14T00:01:00.208Z,24.3
2022-08-14T00:02:02.361Z,24.2
2022-08-14T00:03:00.181Z,24.2
2022-08-14T00:04:00.152Z,24.2
2022-08-14T00:05:00.161Z,24.2
2022-08-14T00:06:01.274Z,24.1
2022-08-14T00:07:00.164Z,24.1
2022-08-14T00:08:00.173Z,24.2
2022-08-14T00:09:00.171Z,24.2
2022-08-14T00:10:49.217Z,24.1
2022-08-14T00:11:00.153Z,24.1
2022-08-14T00:12:00.171Z,24.1
2022-08-14T00:13:00.552Z,24.1
2022-08-14T00:14:02.129Z,24.1
2022-08-14T00:15:00.859Z,24.1
2022-08-14T00:16:00.213Z,24.0
2022-08-14T00:17:01.258Z,24.0
2022-08-14T00:18:00.984Z,24.0
2022-08-14T00:19:06.152Z,24.0
2022-08-14T00:20:00.204Z,24.1
2022-08-14T00:21:00.328Z,24.1
2022-08-14T00:22:00.154Z,24.1
2022-08-14T00:23:08.198Z,24.1
2022-08-14T00:24:01.741Z,24.1
2022-08-14T00:25:00.222Z,24.1
2022-08-14T00:26:06.543Z,23.9
2022-08-14T00:27:02.269Z,23.9
2022-08-14T00:28:00.718Z,23.9
2022-08-14T00:29:00.166Z,23.9
2022-08-14T00:30:00.322Z,24.0
2022-08-14T00:31:00.244Z,24.0
2022-08-14T00:32:00.161Z,23.9
2022-08-14T00:33:00.197Z,23.9
2022-08-14T00:34:36.064Z,23.7
2022-08-14T00:35:00.326Z,23.7
2022-08-14T00:36:36.035Z,23.7
2022-08-14T00:37:00.162Z,23.7
2022-08-14T00:38:00.294Z,23.7
2022-08-14T00:39:00.156Z,23.7
2022-08-14T00:40:00.615Z,23.8
2022-08-14T00:41:00.320Z,23.8
2022-08-14T00:42:01.032Z,23.8
2022-08-14T00:43:00.766Z,23.8
2022-08-14T00:44:00.169Z,23.8
2022-08-14T00:45:00.179Z,23.8
2022-08-14T00:46:05.344Z,23.7
2022-08-14T00:47:01.175Z,23.7
2022-08-14T00:48:00.346Z,23.8
2022-08-14T00:49:00.160Z,23.8
2022-08-14T00:50:01.009Z,23.6
2022-08-14T00:51:00.436Z,23.6
2022-08-14T00:52:00.159Z,23.7
2022-08-14T00:53:00.376Z,23.7
2022-08-14T00:54:00.411Z,23.6
2022-08-14T00:55:01.375Z,23.6
2022-08-14T00:56:00.218Z,23.6
2022-08-14T00:57:00.163Z,23.6
2022-08-14T00:58:00.441Z,23.6
2022-08-14T00:59:00.176Z,23.6
2022-08-14T01:00:01.014Z,23.4
2022-08-14T01:01:03.380Z,23.3
2022-08-14T01:02:00.567Z,23.3
2022-08-14T01:03:00.365Z,23.3
2022-08-14T01:04:00.879Z,23.5
2022-08-14T01:05:00.203Z,23.5
2022-08-14T01:06:00.557Z,23.4
2022-08-14T01:07:00.337Z,23.4
2022-08-14T01:08:00.901Z,23.4
2022-08-14T01:09:00.287Z,23.4
2022-08-14T01:10:01.330Z,23.4
2022-08-14T01:11:00.724Z,23.4
2022-08-14T01:12:03.245Z,23.3
2022-08-14T01:13:00.367Z,23.3
2022-08-14T01:14:01.001Z,23.4
2022-08-14T01:15:02.099Z,23.4
2022-08-14T01:16:03.053Z,23.2
2022-08-14T01:17:00.165Z,23.2
2022-08-14T01:18:00.338Z,23.3
2022-08-14T01:19:02.270Z,23.3
2022-08-14T01:20:00.285Z,23.2
2022-08-14T01:21:00.359Z,23.2
2022-08-14T01:22:00.279Z,23.2
2022-08-14T01:23:00.183Z,23.2
2022-08-14T01:24:00.700Z,23.1
2022-08-14T01:25:00.169Z,23.1
2022-08-14T01:26:00.484Z,23.1
2022-08-14T01:27:00.925Z,23.1
2022-08-14T01:28:00.201Z,23.3
2022-08-14T01:29:01.161Z,23.3
2022-08-14T01:30:03.942Z,22.9
2022-08-14T01:31:00.512Z,22.9
2022-08-14T01:32:00.367Z,23.0
2022-08-14T01:33:00.167Z,23.0
2022-08-14T01:35:18.974Z,23.1
2022-08-14T01:35:21.220Z,23.1
2022-08-14T01:36:03.993Z,23.1
2022-08-14T01:37:00.164Z,23.1
2022-08-14T01:38:00.168Z,23.0
2022-08-14T01:39:00.318Z,23.0
2022-08-14T01:40:00.218Z,23.0
2022-08-14T01:41:01.014Z,23.0
2022-08-14T01:42:00.223Z,23.1
2022-08-14T01:43:00.175Z,23.1
2022-08-14T01:44:01.304Z,23.1
2022-08-14T01:45:00.401Z,23.1
2022-08-14T01:46:06.948Z,23.0
2022-08-14T01:47:05.819Z,23.0
2022-08-14T01:48:03.074Z,23.0
2022-08-14T01:49:01.156Z,23.0
2022-08-14T01:50:01.635Z,22.9
2022-08-14T01:51:00.270Z,22.9
2022-08-14T01:52:00.163Z,22.9
2022-08-14T01:53:01.233Z,22.9
2022-08-14T01:54:01.598Z,22.8
2022-08-14T01:55:00.164Z,22.8
2022-08-14T01:56:03.591Z,22.7
2022-08-14T01:57:00.413Z,22.7
2022-08-14T01:58:01.583Z,22.7
2022-08-14T01:59:00.164Z,22.7
2022-08-14T02:00:00.176Z,22.7
2022-08-14T02:01:00.293Z,22.7
2022-08-14T02:02:01.384Z,22.7
2022-08-14T02:03:00.153Z,22.7
2022-08-14T02:04:00.820Z,22.5
2022-08-14T02:05:00.569Z,22.5
2022-08-14T02:06:31.958Z,22.5
2022-08-14T02:07:00.459Z,22.5
2022-08-14T02:08:08.825Z,22.5
2022-08-14T02:09:00.160Z,22.5
2022-08-14T02:10:00.188Z,22.3
2022-08-14T02:11:00.251Z,22.3
2022-08-14T02:12:01.051Z,22.5
2022-08-14T02:13:00.228Z,22.5
2022-08-14T02:14:07.529Z,22.5
2022-08-14T02:15:01.520Z,22.5
2022-08-14T02:16:00.148Z,22.5
2022-08-14T02:17:00.817Z,22.5
2022-08-14T02:18:00.188Z,22.3
2022-08-14T02:19:00.947Z,22.3
2022-08-14T02:20:00.382Z,22.4
2022-08-14T02:21:00.449Z,22.4
2022-08-14T02:22:03.102Z,22.2
2022-08-14T02:23:00.173Z,22.2
2022-08-14T02:24:00.761Z,22.4
2022-08-14T02:25:00.447Z,22.4
2022-08-14T02:26:24.894Z,22.3
2022-08-14T02:28:22.113Z,22.1
2022-08-14T02:28:22.427Z,22.3
2022-08-14T02:29:03.928Z,22.0
2022-08-14T02:30:02.115Z,22.0
2022-08-14T02:31:00.160Z,22.0
2022-08-14T02:32:00.474Z,22.3
2022-08-14T02:33:00.154Z,22.3
2022-08-14T02:34:22.617Z,22.2
2022-08-14T02:35:00.184Z,22.2
2022-08-14T02:36:05.038Z,22.2
2022-08-14T02:37:06.922Z,22.2
2022-08-14T02:38:00.161Z,22.1
2022-08-14T02:39:00.158Z,22.1
2022-08-14T02:40:00.310Z,22.1
2022-08-14T02:41:00.277Z,22.1
2022-08-14T02:42:00.241Z,22.3
2022-08-14T02:43:02.436Z,22.3
2022-08-14T02:44:01.490Z,22.1
2022-08-14T02:45:00.150Z,22.1
2022-08-14T02:46:00.168Z,22.0
2022-08-14T02:47:01.215Z,22.0
2022-08-14T02:48:02.249Z,22.1
2022-08-14T02:49:02.561Z,22.1
2022-08-14T02:50:00.198Z,22.2
2022-08-14T02:51:01.216Z,22.2
2022-08-14T02:52:00.420Z,22.1
2022-08-14T02:53:03.141Z,22.1
2022-08-14T02:54:00.290Z,22.2
2022-08-14T02:55:00.158Z,22.2
2022-08-14T02:56:02.982Z,22.0
2022-08-14T02:57:14.284Z,22.0
2022-08-14T02:58:03.516Z,21.8
2022-08-14T02:59:00.377Z,21.8
2022-08-14T03:00:00.192Z,22.0
2022-08-14T03:01:01.636Z,22.0
2022-08-14T03:02:00.961Z,22.1
2022-08-14T03:03:01.255Z,22.1
2022-08-14T03:04:00.164Z,22.1
2022-08-14T03:05:00.171Z,22.1
2022-08-14T03:06:00.304Z,22.1
2022-08-14T03:07:07.321Z,22.1
2022-08-14T03:08:09.102Z,22.2
2022-08-14T03:09:00.218Z,22.2
2022-08-14T03:10:26.821Z,22.1
2022-08-14T03:11:00.513Z,22.1
2022-08-14T03:12:00.153Z,22.1
2022-08-14T03:13:00.724Z,22.1
2022-08-14T03:14:00.355Z,22.2
2022-08-14T03:15:00.805Z,22.2
2022-08-14T03:16:01.047Z,22.1
2022-08-14T03:17:00.156Z,22.1
2022-08-14T03:18:00.157Z,22.1
2022-08-14T03:19:01.303Z,22.1
2022-08-14T03:20:00.193Z,22.0
2022-08-14T03:21:01.710Z,22.0
2022-08-14T03:22:00.162Z,22.0
2022-08-14T03:23:00.520Z,22.0
2022-08-14T03:24:00.179Z,22.0
2022-08-14T03:25:00.162Z,22.0
2022-08-14T03:26:00.537Z,22.0
2022-08-14T03:27:00.162Z,22.0
2022-08-14T03:28:02.773Z,22.0
2022-08-14T03:29:01.179Z,22.0
2022-08-14T03:30:00.164Z,22.0
2022-08-14T03:31:00.326Z,22.0
2022-08-14T03:32:00.156Z,21.9
2022-08-14T03:33:00.342Z,21.9
2022-08-14T03:34:00.541Z,21.8
2022-08-14T03:35:00.170Z,21.8
2022-08-14T03:37:28.456Z,21.8
2022-08-14T03:37:28.834Z,21.8
2022-08-14T03:39:12.265Z,21.8
2022-08-14T03:39:12.439Z,21.8
2022-08-14T03:40:00.409Z,21.8
2022-08-14T03:41:00.143Z,21.8
2022-08-14T03:42:00.169Z,21.6
2022-08-14T03:43:00.156Z,21.6
2022-08-14T03:45:19.678Z,21.7
2022-08-14T03:45:20.164Z,21.7
2022-08-14T03:46:00.168Z,21.6
2022-08-14T03:47:00.198Z,21.6
2022-08-14T03:48:11.068Z,21.6
2022-08-14T03:49:00.231Z,21.6
2022-08-14T03:50:00.158Z,21.7
2022-08-14T03:51:01.560Z,21.7
2022-08-14T03:52:01.179Z,21.7
2022-08-14T03:53:01.188Z,21.7
2022-08-14T03:54:02.358Z,21.7
2022-08-14T03:55:00.190Z,21.7
2022-08-14T03:56:00.165Z,21.6
2022-08-14T03:57:00.344Z,21.6
2022-08-14T03:58:00.893Z,21.6
2022-08-14T03:59:00.850Z,21.6
2022-08-14T04:00:00.917Z,21.6
2022-08-14T04:01:00.360Z,21.6
2022-08-14T04:02:02.251Z,21.5
2022-08-14T04:03:01.214Z,21.5
2022-08-14T04:04:00.152Z,21.5
2022-08-14T04:05:11.563Z,21.5
2022-08-14T04:06:00.332Z,21.5
2022-08-14T04:07:00.237Z,21.5
2022-08-14T04:08:22.433Z,21.5
2022-08-14T04:09:00.325Z,21.5
2022-08-14T04:10:00.381Z,21.4
2022-08-14T04:11:01.622Z,21.4
2022-08-14T04:12:00.159Z,21.4
2022-08-14T04:13:03.751Z,21.4
2022-08-14T04:14:00.509Z,21.4
2022-08-14T04:15:00.165Z,21.4
2022-08-14T04:16:04.967Z,21.2
2022-08-14T04:17:00.156Z,21.2
2022-08-14T04:18:04.162Z,21.1
2022-08-14T04:19:00.589Z,21.1
2022-08-14T04:20:00.236Z,21.2
2022-08-14T04:21:00.164Z,21.2
2022-08-14T04:22:03.641Z,21.2
2022-08-14T04:23:00.246Z,21.2
2022-08-14T04:24:00.428Z,21.2
2022-08-14T04:25:04.463Z,21.2
2022-08-14T04:26:01.231Z,21.1
2022-08-14T04:27:00.180Z,21.1
2022-08-14T04:28:03.158Z,21.0
2022-08-14T04:29:14.640Z,21.0
2022-08-14T04:30:00.493Z,21.0
2022-08-14T04:31:00.149Z,21.0
2022-08-14T04:33:01.371Z,21.1
2022-08-14T04:33:05.555Z,21.1
2022-08-14T04:34:00.151Z,20.9
2022-08-14T04:35:00.334Z,20.9
2022-08-14T04:36:00.146Z,21.0
2022-08-14T04:37:00.290Z,21.0
2022-08-14T04:38:07.734Z,21.0
2022-08-14T04:39:00.150Z,21.0
2022-08-14T04:40:00.241Z,21.1
2022-08-14T04:41:00.564Z,21.1
2022-08-14T04:42:00.149Z,21.0
2022-08-14T04:43:00.167Z,21.0
2022-08-14T04:44:00.163Z,21.0
2022-08-14T04:45:01.069Z,21.0
2022-08-14T04:46:00.601Z,20.9
2022-08-14T04:47:00.148Z,20.9
2022-08-14T04:48:00.184Z,20.9
2022-08-14T04:49:00.582Z,20.9
2022-08-14T04:50:00.897Z,21.0
2022-08-14T04:51:00.991Z,21.0
2022-08-14T04:52:00.177Z,20.9
2022-08-14T04:53:01.456Z,20.9
2022-08-14T04:54:00.197Z,20.7
2022-08-14T04:55:00.153Z,20.7
2022-08-14T04:56:00.423Z,20.8
2022-08-14T04:57:00.187Z,20.8
2022-08-14T04:58:02.493Z,20.9
2022-08-14T04:59:02.290Z,20.9
2022-08-14T05:00:00.164Z,21.0
2022-08-14T05:01:01.989Z,21.0
2022-08-14T05:02:00.241Z,20.9
2022-08-14T05:03:00.473Z,20.9
2022-08-14T05:04:00.157Z,20.9
2022-08-14T05:05:00.165Z,20.9
2022-08-14T05:06:01.896Z,20.8
2022-08-14T05:07:00.153Z,20.8
2022-08-14T05:08:04.365Z,20.9
2022-08-14T05:09:00.593Z,20.9
2022-08-14T05:10:00.158Z,21.0
2022-08-14T05:11:04.113Z,20.8
2022-08-14T05:13:02.885Z,20.8
2022-08-14T05:13:12.938Z,20.8
2022-08-14T05:14:33.824Z,20.9
2022-08-14T05:15:00.152Z,20.9
2022-08-14T05:16:00.624Z,20.9
2022-08-14T05:17:01.093Z,20.9
2022-08-14T05:18:17.784Z,20.9
2022-08-14T05:19:24.683Z,20.9
2022-08-14T05:21:04.154Z,20.8
2022-08-14T05:21:55.656Z,20.8
2022-08-14T05:22:16.501Z,20.8
2022-08-14T05:23:01.438Z,20.8
2022-08-14T05:24:00.959Z,20.8
2022-08-14T05:25:00.170Z,20.8
2022-08-14T05:26:00.898Z,20.9
2022-08-14T05:27:00.158Z,20.9
2022-08-14T05:28:16.315Z,20.8
2022-08-14T05:29:00.167Z,20.8
2022-08-14T05:30:02.785Z,20.9
2022-08-14T05:31:02.373Z,20.9
2022-08-14T05:32:00.202Z,21.0
2022-08-14T05:33:00.147Z,21.0
2022-08-14T05:34:00.164Z,21.0
2022-08-14T05:35:00.334Z,21.0
2022-08-14T05:36:01.142Z,21.1
2022-08-14T05:37:02.288Z,21.1
2022-08-14T05:38:10.796Z,21.1
2022-08-14T05:39:00.224Z,21.1
2022-08-14T05:40:00.563Z,21.0
2022-08-14T05:41:01.665Z,21.0
2022-08-14T05:42:00.628Z,21.1
2022-08-14T05:43:00.370Z,21.1
2022-08-14T05:44:00.245Z,21.2
2022-08-14T05:45:00.738Z,21.2
2022-08-14T05:46:00.230Z,21.1
2022-08-14T05:47:00.154Z,21.1
2022-08-14T05:48:01.644Z,20.9
2022-08-14T05:49:00.160Z,20.9
2022-08-14T05:50:00.167Z,21.0
2022-08-14T05:51:00.168Z,21.0
2022-08-14T05:52:01.638Z,21.1
2022-08-14T05:53:00.841Z,21.1
2022-08-14T05:54:11.418Z,21.3
2022-08-14T05:55:00.180Z,21.3
2022-08-14T05:56:00.148Z,21.3
2022-08-14T05:57:00.182Z,21.3
2022-08-14T05:58:01.664Z,21.1
2022-08-14T05:59:00.587Z,21.1
2022-08-14T06:00:00.267Z,21.2
2022-08-14T06:01:00.375Z,21.2
2022-08-14T06:02:00.236Z,21.3
2022-08-14T06:03:00.513Z,21.3
2022-08-14T06:04:00.164Z,21.5
2022-08-14T06:05:00.173Z,21.5
2022-08-14T06:06:00.542Z,21.5
2022-08-14T06:07:00.152Z,21.5
2022-08-14T06:08:00.590Z,21.6
2022-08-14T06:09:00.165Z,21.6
2022-08-14T06:10:04.165Z,21.7
2022-08-14T06:11:01.422Z,21.7
2022-08-14T06:12:00.153Z,21.8
2022-08-14T06:13:00.307Z,21.8
2022-08-14T06:14:00.158Z,21.7
2022-08-14T06:15:00.286Z,21.7
2022-08-14T06:16:00.424Z,21.6
2022-08-14T06:17:00.153Z,21.6
2022-08-14T06:18:00.725Z,21.7
2022-08-14T06:19:00.149Z,21.7
2022-08-14T06:20:00.167Z,21.8
2022-08-14T06:21:02.143Z,21.8
2022-08-14T06:22:00.158Z,21.9
2022-08-14T06:23:00.403Z,21.9
2022-08-14T06:24:00.178Z,22.1
2022-08-14T06:25:00.180Z,22.1
2022-08-14T06:26:00.182Z,22.1
2022-08-14T06:27:04.368Z,22.1
2022-08-14T06:28:01.991Z,22.2
2022-08-14T06:29:00.140Z,22.2
2022-08-14T06:30:00.179Z,22.2
2022-08-14T06:31:00.148Z,22.2
2022-08-14T06:32:37.916Z,22.5
2022-08-14T06:33:01.832Z,22.5
2022-08-14T06:35:03.187Z,22.3
2022-08-14T06:35:09.775Z,22.3
2022-08-14T06:36:00.166Z,22.6
2022-08-14T06:37:00.146Z,22.6
2022-08-14T06:38:00.207Z,22.7
2022-08-14T06:39:00.151Z,22.7
2022-08-14T06:40:00.243Z,22.8
2022-08-14T06:41:00.154Z,22.8
2022-08-14T06:42:00.155Z,22.9
2022-08-14T06:43:03.527Z,22.9
2022-08-14T06:44:00.152Z,22.9
2022-08-14T06:45:00.161Z,22.9
2022-08-14T06:46:00.348Z,23.0
2022-08-14T06:47:01.598Z,23.0
2022-08-14T06:48:00.873Z,23.1
2022-08-14T06:49:00.160Z,23.1
2022-08-14T06:50:00.427Z,23.3
2022-08-14T06:51:00.157Z,23.3
2022-08-14T06:52:00.147Z,23.3
2022-08-14T06:53:00.159Z,23.3
2022-08-14T06:54:00.276Z,23.2
2022-08-14T06:55:00.251Z,23.2
2022-08-14T06:56:01.973Z,23.2
2022-08-14T06:57:00.170Z,23.2
2022-08-14T06:58:00.514Z,23.4
2022-08-14T06:59:00.180Z,23.4
2022-08-14T07:00:00.196Z,23.4
2022-08-14T07:01:00.238Z,23.4
2022-08-14T07:02:00.157Z,23.5
2022-08-14T07:03:00.158Z,23.5
2022-08-14T07:04:00.151Z,23.6
2022-08-14T07:05:00.184Z,23.6
2022-08-14T07:06:00.154Z,23.5
2022-08-14T07:07:00.152Z,23.5
2022-08-14T07:08:00.214Z,23.7
2022-08-14T07:09:00.164Z,23.7
2022-08-14T07:10:00.195Z,23.7
2022-08-14T07:11:00.646Z,23.7
2022-08-14T07:12:00.161Z,23.9
2022-08-14T07:13:03.625Z,23.9
2022-08-14T07:14:00.155Z,24.1
2022-08-14T07:15:01.436Z,24.1
2022-08-14T07:16:00.394Z,24.0
2022-08-14T07:17:00.153Z,24.0
2022-08-14T07:18:00.616Z,24.1
2022-08-14T07:19:00.149Z,24.1
2022-08-14T07:20:00.174Z,24.1
2022-08-14T07:21:01.350Z,24.1
2022-08-14T07:22:00.158Z,24.1
2022-08-14T07:23:07.372Z,24.1
2022-08-14T07:24:00.146Z,24.3
2022-08-14T07:25:00.174Z,24.3
2022-08-14T07:26:01.100Z,24.4
2022-08-14T07:27:00.164Z,24.4
2022-08-14T07:28:00.519Z,24.3
2022-08-14T07:29:00.151Z,24.3
2022-08-14T07:30:02.877Z,24.5
2022-08-14T07:31:04.698Z,24.5
2022-08-14T07:32:00.306Z,24.7
2022-08-14T07:33:00.204Z,24.7
2022-08-14T07:34:00.165Z,24.8
2022-08-14T07:35:00.184Z,24.8
2022-08-14T07:36:01.538Z,24.7
2022-08-14T07:37:01.004Z,24.7
2022-08-14T07:38:00.175Z,24.8
2022-08-14T07:39:00.596Z,24.8
2022-08-14T07:40:01.181Z,24.9
2022-08-14T07:41:00.724Z,24.9
2022-08-14T07:42:00.169Z,24.9
2022-08-14T07:43:14.194Z,24.9
2022-08-14T07:44:05.631Z,25.0
2022-08-14T07:45:00.161Z,25.0
2022-08-14T07:46:00.284Z,25.2
2022-08-14T07:47:00.175Z,25.2
2022-08-14T07:48:00.146Z,25.4
2022-08-14T07:49:00.148Z,25.4
2022-08-14T07:50:01.769Z,25.6
2022-08-14T07:51:10.874Z,25.6
2022-08-14T07:52:00.833Z,25.5
2022-08-14T07:53:00.706Z,25.5
2022-08-14T07:54:00.154Z,25.5
2022-08-14T07:55:00.151Z,25.5
2022-08-14T07:56:21.534Z,25.6
2022-08-14T07:57:00.681Z,25.6
2022-08-14T07:58:00.157Z,25.7
2022-08-14T07:59:00.145Z,25.7
2022-08-14T08:00:00.148Z,25.7
2022-08-14T08:01:00.290Z,25.7
2022-08-14T08:02:02.529Z,25.9
2022-08-14T08:03:00.629Z,25.9
2022-08-14T08:04:03.336Z,25.9
2022-08-14T08:05:00.969Z,25.9
2022-08-14T08:06:00.407Z,26.1
2022-08-14T08:07:00.401Z,26.1
2022-08-14T08:08:00.805Z,26.0
2022-08-14T08:09:03.415Z,26.0
2022-08-14T08:10:03.231Z,26.1
2022-08-14T08:11:03.450Z,26.1
2022-08-14T08:12:01.453Z,26.3
2022-08-14T08:13:08.476Z,26.3
2022-08-14T08:14:02.165Z,26.3
2022-08-14T08:15:05.616Z,26.3
2022-08-14T08:16:00.167Z,26.4
2022-08-14T08:17:00.160Z,26.4
2022-08-14T08:18:03.953Z,26.5
2022-08-14T08:19:10.128Z,26.5
2022-08-14T08:20:00.182Z,26.5
2022-08-14T08:21:00.501Z,26.5
2022-08-14T08:22:00.151Z,26.6
2022-08-14T08:23:06.479Z,26.6
2022-08-14T08:24:00.161Z,26.5
2022-08-14T08:25:00.171Z,26.5
2022-08-14T08:26:00.156Z,26.6
2022-08-14T08:27:00.303Z,26.6
2022-08-14T08:28:01.219Z,26.8
2022-08-14T08:29:00.152Z,26.8
2022-08-14T08:30:02.547Z,26.7
2022-08-14T08:31:01.357Z,26.7
2022-08-14T08:32:01.937Z,26.9
2022-08-14T08:33:00.848Z,26.9
2022-08-14T08:34:02.931Z,27.0
2022-08-14T08:35:00.191Z,27.0
2022-08-14T08:36:02.626Z,27.1
2022-08-14T08:37:05.191Z,27.1
2022-08-14T08:38:02.969Z,27.2
2022-08-14T08:39:15.233Z,27.2
2022-08-14T08:40:02.296Z,27.2
2022-08-14T08:41:00.262Z,27.2
2022-08-14T08:42:00.147Z,27.4
2022-08-14T08:43:00.618Z,27.4
2022-08-14T08:44:03.858Z,27.4
2022-08-14T08:45:00.153Z,27.4
2022-08-14T08:46:05.204Z,27.5
2022-08-14T08:47:00.962Z,27.5
2022-08-14T08:48:00.414Z,27.6
2022-08-14T08:50:00.408Z,27.8
2022-08-14T08:51:00.925Z,27.8
2022-08-14T08:52:00.647Z,27.9
2022-08-14T08:53:02.046Z,27.9
2022-08-14T08:54:03.397Z,27.8
2022-08-14T08:55:01.099Z,27.8
2022-08-14T08:56:00.553Z,27.9
2022-08-14T08:57:00.176Z,27.9
2022-08-14T08:58:01.750Z,27.9
2022-08-14T08:59:00.603Z,27.9
2022-08-14T09:00:00.466Z,27.9
2022-08-14T09:01:00.222Z,27.9
2022-08-14T09:02:01.154Z,28.1
2022-08-14T09:03:00.132Z,28.1
2022-08-14T09:04:00.670Z,28.1
2022-08-14T09:05:01.885Z,28.1
2022-08-14T09:06:01.333Z,28.1
2022-08-14T09:07:10.188Z,28.1
2022-08-14T09:08:31.718Z,27.9
2022-08-14T09:09:00.150Z,27.9
2022-08-14T09:10:00.850Z,28.1
2022-08-14T09:11:01.963Z,28.1
2022-08-14T09:12:00.994Z,28.3
2022-08-14T09:13:00.662Z,28.3
2022-08-14T09:16:00.702Z,28.6
2022-08-14T09:17:00.170Z,28.6
2022-08-14T09:18:00.267Z,28.7
2022-08-14T09:19:00.749Z,28.7
2022-08-14T09:20:02.191Z,28.6
2022-08-14T09:21:00.165Z,28.6
2022-08-14T09:22:00.854Z,28.6
2022-08-14T09:23:00.284Z,28.6
2022-08-14T09:24:29.477Z,28.5
2022-08-14T09:25:00.187Z,28.5
2022-08-14T09:26:01.838Z,28.5
2022-08-14T09:27:00.158Z,28.5
2022-08-14T09:28:01.010Z,28.8
2022-08-14T09:29:00.256Z,28.8
2022-08-14T09:30:00.192Z,29.0
2022-08-14T09:31:00.607Z,29.0
2022-08-14T09:32:02.135Z,28.9
2022-08-14T09:33:03.793Z,28.9
2022-08-14T09:34:09.250Z,29.0
2022-08-14T09:35:10.099Z,29.1
2022-08-14T09:36:01.151Z,29.1
2022-08-14T09:37:03.405Z,29.1
2022-08-14T09:38:19.620Z,29.2
2022-08-14T09:39:14.902Z,29.1
2022-08-14T09:40:03.795Z,29.1
2022-08-14T09:41:08.299Z,29.2
2022-08-14T09:42:21.501Z,29.2
2022-08-14T09:43:09.948Z,29.2
2022-08-14T09:44:10.089Z,29.2
2022-08-14T09:45:10.096Z,29.3
2022-08-14T09:46:05.388Z,29.3
2022-08-14T09:47:00.164Z,29.3
2022-08-14T09:48:00.686Z,29.4
2022-08-14T09:49:02.371Z,29.4
2022-08-14T09:50:00.182Z,29.4
2022-08-14T09:52:03.412Z,29.4
2022-08-14T09:53:03.730Z,29.4
2022-08-14T09:54:18.257Z,29.8
2022-08-14T09:55:00.220Z,29.8
2022-08-14T09:56:00.648Z,29.8
2022-08-14T09:57:00.236Z,29.8
2022-08-14T09:58:07.588Z,29.8
2022-08-14T09:59:09.886Z,29.8
2022-08-14T10:00:09.101Z,29.8
2022-08-14T10:01:07.400Z,29.8
2022-08-14T10:02:00.220Z,29.8
2022-08-14T10:03:00.244Z,29.8
2022-08-14T10:04:00.190Z,29.8
2022-08-14T10:05:01.203Z,29.8
2022-08-14T10:06:07.289Z,29.8
2022-08-14T10:07:00.153Z,29.8
2022-08-14T10:08:01.158Z,30.0
2022-08-14T10:09:00.131Z,30.0
2022-08-14T10:10:02.192Z,30.3
2022-08-14T10:11:03.280Z,30.3
2022-08-14T10:12:00.224Z,30.3
2022-08-14T10:13:01.575Z,30.3
2022-08-14T10:14:10.093Z,30.1
2022-08-14T10:15:00.154Z,30.1
2022-08-14T10:16:00.173Z,30.2
2022-08-14T10:17:00.215Z,30.2
2022-08-14T10:18:08.379Z,30.3
2022-08-14T10:19:09.373Z,30.7
2022-08-14T10:20:00.192Z,30.7
2022-08-14T10:21:00.281Z,30.7
2022-08-14T10:23:12.019Z,30.4
2022-08-14T10:23:14.665Z,30.5
2022-08-14T10:24:00.169Z,30.4
2022-08-14T10:25:08.680Z,30.5
2022-08-14T10:26:05.262Z,30.5
2022-08-14T10:27:00.984Z,30.5
2022-08-14T10:29:19.971Z,30.2
2022-08-14T10:30:00.223Z,30.2
2022-08-14T10:31:00.155Z,30.2
2022-08-14T10:32:00.658Z,30.4
2022-08-14T10:33:00.162Z,30.4
2022-08-14T10:34:12.814Z,30.5
2022-08-14T10:35:04.699Z,30.6
2022-08-14T10:36:00.222Z,30.6
2022-08-14T10:37:04.936Z,30.8
2022-08-14T10:38:00.193Z,30.8
2022-08-14T10:39:02.694Z,30.8
2022-08-14T10:40:05.851Z,30.7
2022-08-14T10:41:10.152Z,30.8
2022-08-14T10:42:03.206Z,30.8
2022-08-14T10:43:00.153Z,30.8
2022-08-14T10:44:07.532Z,30.8
2022-08-14T10:45:00.188Z,30.8
2022-08-14T10:46:21.748Z,30.9
2022-08-14T10:47:40.960Z,30.9
2022-08-14T10:48:07.857Z,30.8
2022-08-14T10:49:01.371Z,30.8
2022-08-14T10:50:00.341Z,30.8
2022-08-14T10:51:00.173Z,30.8
2022-08-14T10:52:01.869Z,30.8
2022-08-14T10:53:00.376Z,30.8
2022-08-14T10:54:26.222Z,31.1
2022-08-14T10:55:04.559Z,31.1
2022-08-14T10:56:01.150Z,31.3
2022-08-14T10:57:10.095Z,31.2
2022-08-14T10:58:00.187Z,31.2
2022-08-14T10:59:01.231Z,31.2
2022-08-14T11:00:10.021Z,31.5
2022-08-14T11:01:01.303Z,31.5
2022-08-14T11:02:00.451Z,31.7
2022-08-14T11:03:01.734Z,31.7
2022-08-14T11:04:00.245Z,31.6
2022-08-14T11:05:04.948Z,31.6
2022-08-14T11:06:09.901Z,31.7
2022-08-14T11:07:00.164Z,31.7
2022-08-14T11:08:00.153Z,31.4
2022-08-14T11:09:09.918Z,31.7
2022-08-14T11:10:03.491Z,31.7
2022-08-14T11:11:02.002Z,31.7
2022-08-14T11:12:35.105Z,31.7
2022-08-14T11:13:00.161Z,31.7
2022-08-14T11:14:00.151Z,31.6
2022-08-14T11:15:02.198Z,31.6
2022-08-14T11:16:00.549Z,31.5
2022-08-14T11:17:01.109Z,31.5
2022-08-14T11:18:01.379Z,31.7
2022-08-14T11:19:01.874Z,31.7
2022-08-14T11:20:01.496Z,31.7
2022-08-14T11:21:00.195Z,31.7
2022-08-14T11:22:00.842Z,31.8
2022-08-14T11:23:00.296Z,31.8
2022-08-14T11:24:01.287Z,31.8
2022-08-14T11:25:01.785Z,31.8
2022-08-14T11:26:01.072Z,31.6
2022-08-14T11:27:00.532Z,31.6
2022-08-14T11:28:00.429Z,32.0
2022-08-14T11:29:01.799Z,32.0
2022-08-14T11:30:51.483Z,32.2
2022-08-14T11:31:03.578Z,32.2
2022-08-14T11:32:00.478Z,32.1
2022-08-14T11:33:00.188Z,32.1
2022-08-14T11:34:00.166Z,32.0
2022-08-14T11:35:00.736Z,32.0
2022-08-14T11:36:01.749Z,32.0
2022-08-14T11:37:22.816Z,32.2
2022-08-14T11:38:01.466Z,32.2
2022-08-14T11:39:00.160Z,32.2
2022-08-14T11:40:00.317Z,32.3
2022-08-14T11:41:00.397Z,32.3
2022-08-14T11:42:00.291Z,32.5
2022-08-14T11:43:01.272Z,32.5
2022-08-14T11:44:00.161Z,32.5
2022-08-14T11:45:04.224Z,32.4
2022-08-14T11:46:03.952Z,32.4
2022-08-14T11:47:05.921Z,32.4
2022-08-14T11:48:13.141Z,32.4
2022-08-14T11:49:03.704Z,32.4
2022-08-14T11:50:10.092Z,32.9
2022-08-14T11:51:00.158Z,32.9
2022-08-14T11:52:00.328Z,32.6
2022-08-14T11:53:02.397Z,32.6
2022-08-14T11:54:01.209Z,32.5
2022-08-14T11:55:00.186Z,32.5
2022-08-14T11:56:01.817Z,32.5
2022-08-14T11:57:00.420Z,32.5
2022-08-14T11:58:01.498Z,32.5
2022-08-14T11:59:00.194Z,32.5
2022-08-14T12:00:01.146Z,32.7
2022-08-14T12:01:01.324Z,32.7
2022-08-14T12:02:08.874Z,33.1
2022-08-14T12:03:04.503Z,33.1
2022-08-14T12:04:08.396Z,33.2
2022-08-14T12:05:00.327Z,33.2
2022-08-14T12:06:28.099Z,33.4
2022-08-14T12:07:00.254Z,33.4
2022-08-14T12:08:05.446Z,33.5
2022-08-14T12:09:00.717Z,33.5
2022-08-14T12:10:00.173Z,33.3
2022-08-14T12:11:00.236Z,33.3
2022-08-14T12:12:10.092Z,33.6
2022-08-14T12:13:10.092Z,33.6
2022-08-14T12:14:05.743Z,33.6
2022-08-14T12:15:00.167Z,33.6
2022-08-14T12:16:06.500Z,33.3
2022-08-14T12:17:00.132Z,33.3
2022-08-14T12:18:01.269Z,32.8
2022-08-14T12:19:00.157Z,32.8
2022-08-14T12:20:03.152Z,33.0
2022-08-14T12:21:10.089Z,33.3
2022-08-14T12:22:00.248Z,33.3
2022-08-14T12:23:00.935Z,33.3
2022-08-14T12:24:01.921Z,33.2
2022-08-14T12:25:00.504Z,33.2
2022-08-14T12:26:32.148Z,33.3
2022-08-14T12:27:00.158Z,33.3
2022-08-14T12:28:01.885Z,33.3
2022-08-14T12:29:09.014Z,33.4
2022-08-14T12:30:00.210Z,33.4
2022-08-14T12:31:10.094Z,33.5
2022-08-14T12:32:01.483Z,33.5
2022-08-14T12:33:01.133Z,33.5
2022-08-14T12:34:01.369Z,33.5
2022-08-14T12:35:00.174Z,33.5
2022-08-14T12:36:04.593Z,33.7
2022-08-14T12:37:04.297Z,33.5
2022-08-14T12:38:00.164Z,33.5
2022-08-14T12:39:01.777Z,33.5
2022-08-14T12:40:08.294Z,33.7
2022-08-14T12:41:00.726Z,33.7
2022-08-14T12:42:00.887Z,33.6
2022-08-14T12:43:01.339Z,33.6
2022-08-14T12:44:01.517Z,33.8
2022-08-14T12:45:00.181Z,33.8
2022-08-14T12:46:00.152Z,33.9
2022-08-14T12:47:07.480Z,33.9
2022-08-14T12:48:01.502Z,33.9
2022-08-14T12:49:02.418Z,33.9
2022-08-14T12:50:00.157Z,33.8
2022-08-14T12:51:00.192Z,33.8
2022-08-14T12:52:00.749Z,33.8
2022-08-14T12:53:13.908Z,33.8
2022-08-14T12:54:10.088Z,33.4
2022-08-14T12:55:06.232Z,33.4
2022-08-14T12:56:21.691Z,33.5
2022-08-14T12:57:02.940Z,33.5
2022-08-14T12:58:00.491Z,33.8
2022-08-14T12:59:01.125Z,33.8
2022-08-14T13:00:22.555Z,34.1
2022-08-14T13:01:16.948Z,34.1
2022-08-14T13:02:05.582Z,34.2
2022-08-14T13:03:00.440Z,34.2
2022-08-14T13:04:03.070Z,34.2
2022-08-14T13:05:00.179Z,34.2
2022-08-14T13:06:00.400Z,34.5
2022-08-14T13:07:01.188Z,34.5
2022-08-14T13:08:02.647Z,34.4
2022-08-14T13:09:00.954Z,34.4
2022-08-14T13:10:00.766Z,34.4
2022-08-14T13:11:00.185Z,34.4
2022-08-14T13:12:31.934Z,34.3
2022-08-14T13:13:13.476Z,34.3
2022-08-14T13:14:00.718Z,34.4
2022-08-14T13:15:01.529Z,34.4
2022-08-14T13:16:01.163Z,34.5
2022-08-14T13:17:00.542Z,34.5
2022-08-14T13:18:01.565Z,34.2
2022-08-14T13:19:00.696Z,34.2
2022-08-14T13:20:00.266Z,34.3
2022-08-14T13:21:01.926Z,34.3
2022-08-14T13:22:09.914Z,34.2
2022-08-14T13:23:01.093Z,34.2